<?xml version="1.0" encoding="utf-8"?>
<gpx xmlns:xsi="http://www.w3.org/2001/XMLSchema-instance" xmlns:xsd="http://www.w3.org/2001/XMLSchema" version="1.1" creator="Shapelink.com" xmlns="http://www.topografix.com/GPX/1/1" xmlns:gpxtpx="http://www.garmin.com/xmlschemas/TrackPointExtension/v1">
  <metadata>
    <name>Gåing 0.40 km, 2013-05-15</name>
    <desc></desc>
    <author><name>Mikael Blom</name></author> 
    <time>2013-05-15T21:14:46Z</time>
  </metadata>
  <trk>
    <name>Gåing 0.40 km, 2013-05-15</name>
    <trkseg>
      <trkpt lat="59.9530953" lon="17.7158394">
        <ele>37.6287</ele>
        <time>2013-05-15T21:14:46Z</time>
      </trkpt>
      <trkpt lat="59.9530927" lon="17.7158639">
        <ele>38.1094</ele>
        <time>2013-05-15T21:14:47Z</time>
      </trkpt>
      <trkpt lat="59.9530874" lon="17.7158822">
        <ele>38.1094</ele>
        <time>2013-05-15T21:14:48Z</time>
      </trkpt>
      <trkpt lat="59.9530813" lon="17.7159118">
        <ele>38.5901</ele>
        <time>2013-05-15T21:14:49Z</time>
      </trkpt>
      <trkpt lat="59.953077" lon="17.715937">
        <ele>38.1094</ele>
        <time>2013-05-15T21:14:50Z</time>
      </trkpt>
      <trkpt lat="59.9530723" lon="17.7159551">
        <ele>39.0707</ele>
        <time>2013-05-15T21:14:51Z</time>
      </trkpt>
      <trkpt lat="59.9530682" lon="17.7159681">
        <ele>39.5513</ele>
        <time>2013-05-15T21:14:52Z</time>
      </trkpt>
      <trkpt lat="59.9530629" lon="17.7159896">
        <ele>40.0321</ele>
        <time>2013-05-15T21:14:53Z</time>
      </trkpt>
      <trkpt lat="59.9530526" lon="17.7160123">
        <ele>40.5128</ele>
        <time>2013-05-15T21:14:54Z</time>
      </trkpt>
      <trkpt lat="59.9530447" lon="17.7160331">
        <ele>40.9934</ele>
        <time>2013-05-15T21:14:55Z</time>
      </trkpt>
      <trkpt lat="59.953035" lon="17.7160572">
        <ele>41.474</ele>
        <time>2013-05-15T21:14:56Z</time>
      </trkpt>
      <trkpt lat="59.9530269" lon="17.7160847">
        <ele>41.9547</ele>
        <time>2013-05-15T21:14:57Z</time>
      </trkpt>
      <trkpt lat="59.9530216" lon="17.7161097">
        <ele>41.9547</ele>
        <time>2013-05-15T21:14:58Z</time>
      </trkpt>
      <trkpt lat="59.9530154" lon="17.7161325">
        <ele>42.4354</ele>
        <time>2013-05-15T21:14:59Z</time>
      </trkpt>
      <trkpt lat="59.9530071" lon="17.716152">
        <ele>42.4354</ele>
        <time>2013-05-15T21:15:00Z</time>
      </trkpt>
      <trkpt lat="59.9530019" lon="17.716173">
        <ele>42.4354</ele>
        <time>2013-05-15T21:15:01Z</time>
      </trkpt>
      <trkpt lat="59.9530012" lon="17.7162008">
        <ele>42.916</ele>
        <time>2013-05-15T21:15:02Z</time>
      </trkpt>
      <trkpt lat="59.9529992" lon="17.7162275">
        <ele>43.3966</ele>
        <time>2013-05-15T21:15:03Z</time>
      </trkpt>
      <trkpt lat="59.9529941" lon="17.7162584">
        <ele>42.916</ele>
        <time>2013-05-15T21:15:04Z</time>
      </trkpt>
      <trkpt lat="59.9529867" lon="17.7162836">
        <ele>43.3966</ele>
        <time>2013-05-15T21:15:05Z</time>
      </trkpt>
      <trkpt lat="59.9529821" lon="17.7163116">
        <ele>43.8773</ele>
        <time>2013-05-15T21:15:06Z</time>
      </trkpt>
      <trkpt lat="59.952976" lon="17.7163426">
        <ele>43.3966</ele>
        <time>2013-05-15T21:15:07Z</time>
      </trkpt>
      <trkpt lat="59.9529712" lon="17.7163646">
        <ele>43.3966</ele>
        <time>2013-05-15T21:15:08Z</time>
      </trkpt>
      <trkpt lat="59.9529663" lon="17.7163816">
        <ele>43.3966</ele>
        <time>2013-05-15T21:15:09Z</time>
      </trkpt>
      <trkpt lat="59.9529639" lon="17.7164055">
        <ele>42.916</ele>
        <time>2013-05-15T21:15:10Z</time>
      </trkpt>
      <trkpt lat="59.9529599" lon="17.7164301">
        <ele>42.916</ele>
        <time>2013-05-15T21:15:11Z</time>
      </trkpt>
      <trkpt lat="59.9529553" lon="17.7164541">
        <ele>42.916</ele>
        <time>2013-05-15T21:15:12Z</time>
      </trkpt>
      <trkpt lat="59.9529527" lon="17.7164721">
        <ele>42.916</ele>
        <time>2013-05-15T21:15:13Z</time>
      </trkpt>
      <trkpt lat="59.9529522" lon="17.7164893">
        <ele>42.916</ele>
        <time>2013-05-15T21:15:14Z</time>
      </trkpt>
      <trkpt lat="59.9529509" lon="17.716508">
        <ele>42.916</ele>
        <time>2013-05-15T21:15:15Z</time>
      </trkpt>
      <trkpt lat="59.9529495" lon="17.7165304">
        <ele>42.916</ele>
        <time>2013-05-15T21:15:16Z</time>
      </trkpt>
      <trkpt lat="59.9529496" lon="17.7165556">
        <ele>42.916</ele>
        <time>2013-05-15T21:15:17Z</time>
      </trkpt>
      <trkpt lat="59.9529476" lon="17.7165808">
        <ele>42.916</ele>
        <time>2013-05-15T21:15:18Z</time>
      </trkpt>
      <trkpt lat="59.9529435" lon="17.7166042">
        <ele>42.916</ele>
        <time>2013-05-15T21:15:19Z</time>
      </trkpt>
      <trkpt lat="59.9529402" lon="17.7166247">
        <ele>42.4354</ele>
        <time>2013-05-15T21:15:20Z</time>
      </trkpt>
      <trkpt lat="59.9529371" lon="17.7166484">
        <ele>42.4354</ele>
        <time>2013-05-15T21:15:21Z</time>
      </trkpt>
      <trkpt lat="59.9529369" lon="17.716677">
        <ele>43.3966</ele>
        <time>2013-05-15T21:15:22Z</time>
      </trkpt>
      <trkpt lat="59.9529344" lon="17.7167054">
        <ele>43.3966</ele>
        <time>2013-05-15T21:15:23Z</time>
      </trkpt>
      <trkpt lat="59.9529333" lon="17.7167271">
        <ele>43.3966</ele>
        <time>2013-05-15T21:15:24Z</time>
      </trkpt>
      <trkpt lat="59.9529297" lon="17.7167583">
        <ele>43.8773</ele>
        <time>2013-05-15T21:15:25Z</time>
      </trkpt>
      <trkpt lat="59.9529235" lon="17.7167865">
        <ele>43.3966</ele>
        <time>2013-05-15T21:15:26Z</time>
      </trkpt>
      <trkpt lat="59.9529171" lon="17.7168072">
        <ele>43.8773</ele>
        <time>2013-05-15T21:15:27Z</time>
      </trkpt>
      <trkpt lat="59.9529133" lon="17.7168296">
        <ele>43.8773</ele>
        <time>2013-05-15T21:15:28Z</time>
      </trkpt>
      <trkpt lat="59.9529134" lon="17.7168483">
        <ele>44.358</ele>
        <time>2013-05-15T21:15:29Z</time>
      </trkpt>
      <trkpt lat="59.9529123" lon="17.7168723">
        <ele>44.358</ele>
        <time>2013-05-15T21:15:30Z</time>
      </trkpt>
      <trkpt lat="59.9529095" lon="17.7168934">
        <ele>44.8386</ele>
        <time>2013-05-15T21:15:31Z</time>
      </trkpt>
      <trkpt lat="59.9529066" lon="17.7169109">
        <ele>44.358</ele>
        <time>2013-05-15T21:15:32Z</time>
      </trkpt>
      <trkpt lat="59.9529069" lon="17.7169323">
        <ele>44.358</ele>
        <time>2013-05-15T21:15:33Z</time>
      </trkpt>
      <trkpt lat="59.9529088" lon="17.7169602">
        <ele>44.8386</ele>
        <time>2013-05-15T21:15:34Z</time>
      </trkpt>
      <trkpt lat="59.9529077" lon="17.7169836">
        <ele>44.8386</ele>
        <time>2013-05-15T21:15:35Z</time>
      </trkpt>
      <trkpt lat="59.9529065" lon="17.7170088">
        <ele>45.3192</ele>
        <time>2013-05-15T21:15:36Z</time>
      </trkpt>
      <trkpt lat="59.9529059" lon="17.7170287">
        <ele>45.7999</ele>
        <time>2013-05-15T21:15:37Z</time>
      </trkpt>
      <trkpt lat="59.9529083" lon="17.7170505">
        <ele>45.7999</ele>
        <time>2013-05-15T21:15:38Z</time>
      </trkpt>
      <trkpt lat="59.95291" lon="17.7170653">
        <ele>46.2806</ele>
        <time>2013-05-15T21:15:39Z</time>
      </trkpt>
      <trkpt lat="59.9529057" lon="17.7170829">
        <ele>46.2806</ele>
        <time>2013-05-15T21:15:40Z</time>
      </trkpt>
      <trkpt lat="59.9529049" lon="17.7170968">
        <ele>46.7612</ele>
        <time>2013-05-15T21:15:41Z</time>
      </trkpt>
      <trkpt lat="59.9529134" lon="17.717114">
        <ele>47.2418</ele>
        <time>2013-05-15T21:15:42Z</time>
      </trkpt>
      <trkpt lat="59.9529152" lon="17.7171175">
        <ele>47.7225</ele>
        <time>2013-05-15T21:15:43Z</time>
      </trkpt>
      <trkpt lat="59.9529198" lon="17.717122">
        <ele>48.2034</ele>
        <time>2013-05-15T21:15:44Z</time>
      </trkpt>
      <trkpt lat="59.9529195" lon="17.7171154">
        <ele>48.2034</ele>
        <time>2013-05-15T21:15:45Z</time>
      </trkpt>
      <trkpt lat="59.9529212" lon="17.7171025">
        <ele>48.684</ele>
        <time>2013-05-15T21:15:46Z</time>
      </trkpt>
      <trkpt lat="59.9529243" lon="17.7170812">
        <ele>48.684</ele>
        <time>2013-05-15T21:15:47Z</time>
      </trkpt>
      <trkpt lat="59.9529251" lon="17.7170642">
        <ele>48.684</ele>
        <time>2013-05-15T21:15:48Z</time>
      </trkpt>
      <trkpt lat="59.9529263" lon="17.7170479">
        <ele>48.2034</ele>
        <time>2013-05-15T21:15:49Z</time>
      </trkpt>
      <trkpt lat="59.9529283" lon="17.7170331">
        <ele>48.684</ele>
        <time>2013-05-15T21:15:50Z</time>
      </trkpt>
      <trkpt lat="59.9529298" lon="17.7170094">
        <ele>48.684</ele>
        <time>2013-05-15T21:15:51Z</time>
      </trkpt>
      <trkpt lat="59.95293" lon="17.7169855">
        <ele>48.2034</ele>
        <time>2013-05-15T21:15:52Z</time>
      </trkpt>
      <trkpt lat="59.9529326" lon="17.7169581">
        <ele>49.1646</ele>
        <time>2013-05-15T21:15:53Z</time>
      </trkpt>
      <trkpt lat="59.9529338" lon="17.7169324">
        <ele>49.1646</ele>
        <time>2013-05-15T21:15:54Z</time>
      </trkpt>
      <trkpt lat="59.9529323" lon="17.7169131">
        <ele>48.684</ele>
        <time>2013-05-15T21:15:55Z</time>
      </trkpt>
      <trkpt lat="59.9529294" lon="17.7168929">
        <ele>48.2034</ele>
        <time>2013-05-15T21:15:56Z</time>
      </trkpt>
      <trkpt lat="59.9529308" lon="17.7168694">
        <ele>47.7225</ele>
        <time>2013-05-15T21:15:57Z</time>
      </trkpt>
      <trkpt lat="59.952931" lon="17.7168468">
        <ele>47.7225</ele>
        <time>2013-05-15T21:15:58Z</time>
      </trkpt>
      <trkpt lat="59.9529281" lon="17.7168267">
        <ele>47.2418</ele>
        <time>2013-05-15T21:15:59Z</time>
      </trkpt>
      <trkpt lat="59.9529345" lon="17.7167991">
        <ele>48.2034</ele>
        <time>2013-05-15T21:16:00Z</time>
      </trkpt>
      <trkpt lat="59.9529403" lon="17.7167668">
        <ele>49.1646</ele>
        <time>2013-05-15T21:16:01Z</time>
      </trkpt>
      <trkpt lat="59.9529413" lon="17.7167347">
        <ele>49.1646</ele>
        <time>2013-05-15T21:16:02Z</time>
      </trkpt>
      <trkpt lat="59.9529382" lon="17.7167002">
        <ele>49.1646</ele>
        <time>2013-05-15T21:16:03Z</time>
      </trkpt>
      <trkpt lat="59.9529361" lon="17.716662">
        <ele>50.126</ele>
        <time>2013-05-15T21:16:04Z</time>
      </trkpt>
      <trkpt lat="59.9529381" lon="17.7166357">
        <ele>50.6066</ele>
        <time>2013-05-15T21:16:05Z</time>
      </trkpt>
      <trkpt lat="59.9529432" lon="17.7166238">
        <ele>51.0872</ele>
        <time>2013-05-15T21:16:06Z</time>
      </trkpt>
      <trkpt lat="59.952947" lon="17.7166085">
        <ele>51.5679</ele>
        <time>2013-05-15T21:16:07Z</time>
      </trkpt>
      <trkpt lat="59.9529501" lon="17.7166002">
        <ele>51.0872</ele>
        <time>2013-05-15T21:16:08Z</time>
      </trkpt>
      <trkpt lat="59.9529502" lon="17.7165671">
        <ele>52.0486</ele>
        <time>2013-05-15T21:16:09Z</time>
      </trkpt>
      <trkpt lat="59.9529491" lon="17.7165418">
        <ele>52.5292</ele>
        <time>2013-05-15T21:16:10Z</time>
      </trkpt>
      <trkpt lat="59.9529497" lon="17.7165235">
        <ele>52.0486</ele>
        <time>2013-05-15T21:16:11Z</time>
      </trkpt>
      <trkpt lat="59.9529489" lon="17.7165033">
        <ele>51.5679</ele>
        <time>2013-05-15T21:16:12Z</time>
      </trkpt>
      <trkpt lat="59.9529505" lon="17.7164856">
        <ele>51.0872</ele>
        <time>2013-05-15T21:16:13Z</time>
      </trkpt>
      <trkpt lat="59.9529532" lon="17.7164646">
        <ele>51.0872</ele>
        <time>2013-05-15T21:16:14Z</time>
      </trkpt>
      <trkpt lat="59.9529548" lon="17.7164501">
        <ele>50.6066</ele>
        <time>2013-05-15T21:16:15Z</time>
      </trkpt>
      <trkpt lat="59.9529553" lon="17.7164373">
        <ele>50.126</ele>
        <time>2013-05-15T21:16:16Z</time>
      </trkpt>
      <trkpt lat="59.9529574" lon="17.7164174">
        <ele>50.126</ele>
        <time>2013-05-15T21:16:17Z</time>
      </trkpt>
      <trkpt lat="59.9529626" lon="17.716392">
        <ele>50.126</ele>
        <time>2013-05-15T21:16:18Z</time>
      </trkpt>
      <trkpt lat="59.9529704" lon="17.7163707">
        <ele>50.126</ele>
        <time>2013-05-15T21:16:19Z</time>
      </trkpt>
      <trkpt lat="59.9529787" lon="17.716348">
        <ele>49.6453</ele>
        <time>2013-05-15T21:16:20Z</time>
      </trkpt>
      <trkpt lat="59.9529853" lon="17.7163245">
        <ele>48.684</ele>
        <time>2013-05-15T21:16:21Z</time>
      </trkpt>
      <trkpt lat="59.9529925" lon="17.716311">
        <ele>48.2034</ele>
        <time>2013-05-15T21:16:22Z</time>
      </trkpt>
      <trkpt lat="59.9529992" lon="17.7162976">
        <ele>47.2418</ele>
        <time>2013-05-15T21:16:23Z</time>
      </trkpt>
      <trkpt lat="59.953007" lon="17.7162796">
        <ele>47.2418</ele>
        <time>2013-05-15T21:16:24Z</time>
      </trkpt>
      <trkpt lat="59.9530095" lon="17.7162548">
        <ele>46.2806</ele>
        <time>2013-05-15T21:16:25Z</time>
      </trkpt>
      <trkpt lat="59.9530116" lon="17.7162314">
        <ele>44.358</ele>
        <time>2013-05-15T21:16:26Z</time>
      </trkpt>
      <trkpt lat="59.9530129" lon="17.7162117">
        <ele>43.3966</ele>
        <time>2013-05-15T21:16:27Z</time>
      </trkpt>
      <trkpt lat="59.9530143" lon="17.7161944">
        <ele>42.4354</ele>
        <time>2013-05-15T21:16:28Z</time>
      </trkpt>
      <trkpt lat="59.9530147" lon="17.7161733">
        <ele>40.5128</ele>
        <time>2013-05-15T21:16:29Z</time>
      </trkpt>
      <trkpt lat="59.9530186" lon="17.7161475">
        <ele>40.5128</ele>
        <time>2013-05-15T21:16:30Z</time>
      </trkpt>
      <trkpt lat="59.953023" lon="17.7161221">
        <ele>40.9934</ele>
        <time>2013-05-15T21:16:31Z</time>
      </trkpt>
      <trkpt lat="59.9530271" lon="17.7160988">
        <ele>40.5128</ele>
        <time>2013-05-15T21:16:32Z</time>
      </trkpt>
      <trkpt lat="59.9530321" lon="17.7160749">
        <ele>40.5128</ele>
        <time>2013-05-15T21:16:33Z</time>
      </trkpt>
      <trkpt lat="59.9530385" lon="17.7160485">
        <ele>40.5128</ele>
        <time>2013-05-15T21:16:34Z</time>
      </trkpt>
      <trkpt lat="59.9530429" lon="17.7160242">
        <ele>39.5513</ele>
        <time>2013-05-15T21:16:35Z</time>
      </trkpt>
      <trkpt lat="59.953049" lon="17.7160022">
        <ele>38.5901</ele>
        <time>2013-05-15T21:16:36Z</time>
      </trkpt>
      <trkpt lat="59.9530557" lon="17.7159805">
        <ele>37.6287</ele>
        <time>2013-05-15T21:16:37Z</time>
      </trkpt>
      <trkpt lat="59.9530604" lon="17.7159599">
        <ele>36.1868</ele>
        <time>2013-05-15T21:16:38Z</time>
      </trkpt>
      <trkpt lat="59.9530672" lon="17.7159432">
        <ele>34.7449</ele>
        <time>2013-05-15T21:16:39Z</time>
      </trkpt>
      <trkpt lat="59.9530781" lon="17.7159221">
        <ele>34.7449</ele>
        <time>2013-05-15T21:16:40Z</time>
      </trkpt>
      <trkpt lat="59.9530869" lon="17.7158967">
        <ele>34.7449</ele>
        <time>2013-05-15T21:16:41Z</time>
      </trkpt>
      <trkpt lat="59.9531024" lon="17.7158504">
        <ele>35.7061</ele>
        <time>2013-05-15T21:16:43Z</time>
      </trkpt>
      <trkpt lat="59.9531148" lon="17.715828">
        <ele>36.1868</ele>
        <time>2013-05-15T21:16:44Z</time>
      </trkpt>
      <trkpt lat="59.9531248" lon="17.7158082">
        <ele>36.6675</ele>
        <time>2013-05-15T21:16:45Z</time>
      </trkpt>
      <trkpt lat="59.9531345" lon="17.7157903">
        <ele>36.6675</ele>
        <time>2013-05-15T21:16:46Z</time>
      </trkpt>
      <trkpt lat="59.9531469" lon="17.7157764">
        <ele>37.6287</ele>
        <time>2013-05-15T21:16:47Z</time>
      </trkpt>
      <trkpt lat="59.9531555" lon="17.715766">
        <ele>37.1481</ele>
        <time>2013-05-15T21:16:48Z</time>
      </trkpt>
      <trkpt lat="59.9531624" lon="17.7157541">
        <ele>36.1868</ele>
        <time>2013-05-15T21:16:49Z</time>
      </trkpt>
      <trkpt lat="59.9531761" lon="17.7157391">
        <ele>36.6675</ele>
        <time>2013-05-15T21:16:50Z</time>
      </trkpt>
      <trkpt lat="59.953191" lon="17.7157232">
        <ele>37.6287</ele>
        <time>2013-05-15T21:16:51Z</time>
      </trkpt>
      <trkpt lat="59.953205" lon="17.7157072">
        <ele>38.1094</ele>
        <time>2013-05-15T21:16:52Z</time>
      </trkpt>
      <trkpt lat="59.9532178" lon="17.7156932">
        <ele>38.5901</ele>
        <time>2013-05-15T21:16:53Z</time>
      </trkpt>
      <trkpt lat="59.9532302" lon="17.7156792">
        <ele>39.0707</ele>
        <time>2013-05-15T21:16:54Z</time>
      </trkpt>
      <trkpt lat="59.9532423" lon="17.7156683">
        <ele>39.5513</ele>
        <time>2013-05-15T21:16:55Z</time>
      </trkpt>
      <trkpt lat="59.9532566" lon="17.7156603">
        <ele>40.0321</ele>
        <time>2013-05-15T21:16:56Z</time>
      </trkpt>
      <trkpt lat="59.9532687" lon="17.715642">
        <ele>40.9934</ele>
        <time>2013-05-15T21:16:57Z</time>
      </trkpt>
      <trkpt lat="59.9532816" lon="17.71563">
        <ele>41.474</ele>
        <time>2013-05-15T21:16:58Z</time>
      </trkpt>
      <trkpt lat="59.9532925" lon="17.7156182">
        <ele>41.474</ele>
        <time>2013-05-15T21:16:59Z</time>
      </trkpt>
      <trkpt lat="59.9533023" lon="17.7156029">
        <ele>41.9547</ele>
        <time>2013-05-15T21:17:00Z</time>
      </trkpt>
      <trkpt lat="59.953311" lon="17.7155848">
        <ele>41.9547</ele>
        <time>2013-05-15T21:17:01Z</time>
      </trkpt>
      <trkpt lat="59.9533213" lon="17.7155765">
        <ele>41.9547</ele>
        <time>2013-05-15T21:17:02Z</time>
      </trkpt>
      <trkpt lat="59.9533381" lon="17.7155642">
        <ele>42.4354</ele>
        <time>2013-05-15T21:17:03Z</time>
      </trkpt>
      <trkpt lat="59.9533485" lon="17.7155367">
        <ele>42.4354</ele>
        <time>2013-05-15T21:17:04Z</time>
      </trkpt>
      <trkpt lat="59.9533563" lon="17.7155127">
        <ele>41.9547</ele>
        <time>2013-05-15T21:17:05Z</time>
      </trkpt>
      <trkpt lat="59.9533654" lon="17.7154937">
        <ele>41.9547</ele>
        <time>2013-05-15T21:17:06Z</time>
      </trkpt>
      <trkpt lat="59.9533748" lon="17.7154812">
        <ele>41.9547</ele>
        <time>2013-05-15T21:17:07Z</time>
      </trkpt>
      <trkpt lat="59.9533791" lon="17.7154537">
        <ele>42.4354</ele>
        <time>2013-05-15T21:17:08Z</time>
      </trkpt>
      <trkpt lat="59.9533852" lon="17.7154327">
        <ele>41.474</ele>
        <time>2013-05-15T21:17:09Z</time>
      </trkpt>
      <trkpt lat="59.9533908" lon="17.715411">
        <ele>40.0321</ele>
        <time>2013-05-15T21:17:10Z</time>
      </trkpt>
      <trkpt lat="59.953404" lon="17.7153921">
        <ele>39.5513</ele>
        <time>2013-05-15T21:17:11Z</time>
      </trkpt>
      <trkpt lat="59.9534173" lon="17.7153756">
        <ele>39.5513</ele>
        <time>2013-05-15T21:17:12Z</time>
      </trkpt>
      <trkpt lat="59.9534275" lon="17.7153597">
        <ele>38.5901</ele>
        <time>2013-05-15T21:17:13Z</time>
      </trkpt>
      <trkpt lat="59.9534391" lon="17.7153376">
        <ele>38.5901</ele>
        <time>2013-05-15T21:17:14Z</time>
      </trkpt>
      <trkpt lat="59.9534459" lon="17.7153174">
        <ele>38.1094</ele>
        <time>2013-05-15T21:17:15Z</time>
      </trkpt>
      <trkpt lat="59.9534535" lon="17.7153052">
        <ele>39.0707</ele>
        <time>2013-05-15T21:17:16Z</time>
      </trkpt>
      <trkpt lat="59.9534623" lon="17.7152876">
        <ele>39.0707</ele>
        <time>2013-05-15T21:17:17Z</time>
      </trkpt>
      <trkpt lat="59.9534717" lon="17.7152694">
        <ele>38.5901</ele>
        <time>2013-05-15T21:17:18Z</time>
      </trkpt>
      <trkpt lat="59.9534806" lon="17.7152511">
        <ele>38.5901</ele>
        <time>2013-05-15T21:17:19Z</time>
      </trkpt>
      <trkpt lat="59.9534894" lon="17.7152326">
        <ele>38.5901</ele>
        <time>2013-05-15T21:17:20Z</time>
      </trkpt>
      <trkpt lat="59.9534982" lon="17.7152146">
        <ele>38.5901</ele>
        <time>2013-05-15T21:17:21Z</time>
      </trkpt>
      <trkpt lat="59.9535059" lon="17.7152078">
        <ele>37.1481</ele>
        <time>2013-05-15T21:17:22Z</time>
      </trkpt>
      <trkpt lat="59.9535168" lon="17.7152014">
        <ele>37.1481</ele>
        <time>2013-05-15T21:17:23Z</time>
      </trkpt>
      <trkpt lat="59.9535324" lon="17.7151866">
        <ele>37.1481</ele>
        <time>2013-05-15T21:17:24Z</time>
      </trkpt>
      <trkpt lat="59.9535498" lon="17.715174">
        <ele>37.1481</ele>
        <time>2013-05-15T21:17:25Z</time>
      </trkpt>
      <trkpt lat="59.9535663" lon="17.7151632">
        <ele>38.5901</ele>
        <time>2013-05-15T21:17:26Z</time>
      </trkpt>
      <trkpt lat="59.9535764" lon="17.7151533">
        <ele>39.0707</ele>
        <time>2013-05-15T21:17:27Z</time>
      </trkpt>
      <trkpt lat="59.9535872" lon="17.715139">
        <ele>40.0321</ele>
        <time>2013-05-15T21:17:28Z</time>
      </trkpt>
      <trkpt lat="59.9535956" lon="17.7151284">
        <ele>40.5128</ele>
        <time>2013-05-15T21:17:29Z</time>
      </trkpt>
      <trkpt lat="59.9536054" lon="17.7151206">
        <ele>40.0321</ele>
        <time>2013-05-15T21:17:30Z</time>
      </trkpt>
      <trkpt lat="59.9536197" lon="17.7151068">
        <ele>40.0321</ele>
        <time>2013-05-15T21:17:31Z</time>
      </trkpt>
      <trkpt lat="59.9536347" lon="17.7150963">
        <ele>40.0321</ele>
        <time>2013-05-15T21:17:32Z</time>
      </trkpt>
      <trkpt lat="59.953651" lon="17.7150891">
        <ele>40.0321</ele>
        <time>2013-05-15T21:17:33Z</time>
      </trkpt>
      <trkpt lat="59.9536687" lon="17.7150957">
        <ele>39.5513</ele>
        <time>2013-05-15T21:17:34Z</time>
      </trkpt>
      <trkpt lat="59.9536826" lon="17.7151002">
        <ele>39.0707</ele>
        <time>2013-05-15T21:17:35Z</time>
      </trkpt>
      <trkpt lat="59.9536936" lon="17.7150949">
        <ele>38.1094</ele>
        <time>2013-05-15T21:17:36Z</time>
      </trkpt>
      <trkpt lat="59.953705" lon="17.7150881">
        <ele>37.6287</ele>
        <time>2013-05-15T21:17:37Z</time>
      </trkpt>
      <trkpt lat="59.9537122" lon="17.7150866">
        <ele>35.7061</ele>
        <time>2013-05-15T21:17:38Z</time>
      </trkpt>
      <trkpt lat="59.9537265" lon="17.7150777">
        <ele>35.7061</ele>
        <time>2013-05-15T21:17:39Z</time>
      </trkpt>
      <trkpt lat="59.9537415" lon="17.7150648">
        <ele>35.2255</ele>
        <time>2013-05-15T21:17:40Z</time>
      </trkpt>
      <trkpt lat="59.9537524" lon="17.7150622">
        <ele>34.7449</ele>
        <time>2013-05-15T21:17:41Z</time>
      </trkpt>
      <trkpt lat="59.953766" lon="17.7150451">
        <ele>35.2255</ele>
        <time>2013-05-15T21:17:42Z</time>
      </trkpt>
      <trkpt lat="59.9537779" lon="17.7150369">
        <ele>35.2255</ele>
        <time>2013-05-15T21:17:43Z</time>
      </trkpt>
      <trkpt lat="59.9537896" lon="17.7150239">
        <ele>35.2255</ele>
        <time>2013-05-15T21:17:44Z</time>
      </trkpt>
      <trkpt lat="59.9538039" lon="17.7150255">
        <ele>34.7449</ele>
        <time>2013-05-15T21:17:45Z</time>
      </trkpt>
      <trkpt lat="59.9538172" lon="17.7150175">
        <ele>35.2255</ele>
        <time>2013-05-15T21:17:46Z</time>
      </trkpt>
      <trkpt lat="59.9538316" lon="17.7150045">
        <ele>36.6675</ele>
        <time>2013-05-15T21:17:47Z</time>
      </trkpt>
      <trkpt lat="59.9538463" lon="17.714989">
        <ele>38.5901</ele>
        <time>2013-05-15T21:17:48Z</time>
      </trkpt>
      <trkpt lat="59.9538612" lon="17.7149815">
        <ele>40.0321</ele>
        <time>2013-05-15T21:17:49Z</time>
      </trkpt>
      <trkpt lat="59.9538764" lon="17.7149866">
        <ele>40.5128</ele>
        <time>2013-05-15T21:17:50Z</time>
      </trkpt>
      <trkpt lat="59.9538917" lon="17.7149857">
        <ele>40.5128</ele>
        <time>2013-05-15T21:17:51Z</time>
      </trkpt>
      <trkpt lat="59.9539046" lon="17.7149882">
        <ele>41.474</ele>
        <time>2013-05-15T21:17:52Z</time>
      </trkpt>
      <trkpt lat="59.9539158" lon="17.7149918">
        <ele>40.9934</ele>
        <time>2013-05-15T21:17:53Z</time>
      </trkpt>
      <trkpt lat="59.9539276" lon="17.7149871">
        <ele>41.474</ele>
        <time>2013-05-15T21:17:54Z</time>
      </trkpt>
      <trkpt lat="59.9539425" lon="17.714982">
        <ele>42.4354</ele>
        <time>2013-05-15T21:17:55Z</time>
      </trkpt>
      <trkpt lat="59.9539543" lon="17.7149851">
        <ele>42.4354</ele>
        <time>2013-05-15T21:17:56Z</time>
      </trkpt>
      <trkpt lat="59.9539669" lon="17.7149865">
        <ele>42.916</ele>
        <time>2013-05-15T21:17:57Z</time>
      </trkpt>
      <trkpt lat="59.9539778" lon="17.7149892">
        <ele>42.916</ele>
        <time>2013-05-15T21:17:58Z</time>
      </trkpt>
      <trkpt lat="59.9539893" lon="17.7149872">
        <ele>42.4354</ele>
        <time>2013-05-15T21:17:59Z</time>
      </trkpt>
      <trkpt lat="59.9539999" lon="17.7149857">
        <ele>41.9547</ele>
        <time>2013-05-15T21:18:00Z</time>
      </trkpt>
      <trkpt lat="59.954012" lon="17.7149746">
        <ele>42.4354</ele>
        <time>2013-05-15T21:18:01Z</time>
      </trkpt>
      <trkpt lat="59.9540245" lon="17.7149659">
        <ele>42.4354</ele>
        <time>2013-05-15T21:18:02Z</time>
      </trkpt>
      <trkpt lat="59.9540386" lon="17.7149553">
        <ele>42.916</ele>
        <time>2013-05-15T21:18:03Z</time>
      </trkpt>
      <trkpt lat="59.9540519" lon="17.7149446">
        <ele>43.3966</ele>
        <time>2013-05-15T21:18:04Z</time>
      </trkpt>
      <trkpt lat="59.954066" lon="17.7149325">
        <ele>43.3966</ele>
        <time>2013-05-15T21:18:05Z</time>
      </trkpt>
      <trkpt lat="59.9540814" lon="17.7149168">
        <ele>43.8773</ele>
        <time>2013-05-15T21:18:06Z</time>
      </trkpt>
      <trkpt lat="59.9540943" lon="17.7149071">
        <ele>43.8773</ele>
        <time>2013-05-15T21:18:07Z</time>
      </trkpt>
      <trkpt lat="59.9541042" lon="17.7149016">
        <ele>42.916</ele>
        <time>2013-05-15T21:18:08Z</time>
      </trkpt>
      <trkpt lat="59.9541163" lon="17.7148892">
        <ele>43.3966</ele>
        <time>2013-05-15T21:18:09Z</time>
      </trkpt>
      <trkpt lat="59.9541273" lon="17.7148812">
        <ele>42.916</ele>
        <time>2013-05-15T21:18:10Z</time>
      </trkpt>
      <trkpt lat="59.9541418" lon="17.7148742">
        <ele>43.3966</ele>
        <time>2013-05-15T21:18:11Z</time>
      </trkpt>
      <trkpt lat="59.9541581" lon="17.7148742">
        <ele>43.8773</ele>
        <time>2013-05-15T21:18:12Z</time>
      </trkpt>
      <trkpt lat="59.9541711" lon="17.7148669">
        <ele>43.3966</ele>
        <time>2013-05-15T21:18:13Z</time>
      </trkpt>
      <trkpt lat="59.9541846" lon="17.7148628">
        <ele>43.8773</ele>
        <time>2013-05-15T21:18:14Z</time>
      </trkpt>
      <trkpt lat="59.9541986" lon="17.71486">
        <ele>43.8773</ele>
        <time>2013-05-15T21:18:15Z</time>
      </trkpt>
      <trkpt lat="59.9542156" lon="17.7148587">
        <ele>44.358</ele>
        <time>2013-05-15T21:18:16Z</time>
      </trkpt>
      <trkpt lat="59.954228" lon="17.7148574">
        <ele>43.8773</ele>
        <time>2013-05-15T21:18:17Z</time>
      </trkpt>
      <trkpt lat="59.954241" lon="17.7148546">
        <ele>43.8773</ele>
        <time>2013-05-15T21:18:18Z</time>
      </trkpt>
      <trkpt lat="59.954255" lon="17.7148633">
        <ele>43.8773</ele>
        <time>2013-05-15T21:18:19Z</time>
      </trkpt>
      <trkpt lat="59.9542673" lon="17.7148653">
        <ele>43.8773</ele>
        <time>2013-05-15T21:18:20Z</time>
      </trkpt>
      <trkpt lat="59.9542819" lon="17.7148675">
        <ele>44.8386</ele>
        <time>2013-05-15T21:18:21Z</time>
      </trkpt>
      <trkpt lat="59.9542958" lon="17.7148738">
        <ele>44.8386</ele>
        <time>2013-05-15T21:18:22Z</time>
      </trkpt>
      <trkpt lat="59.9543087" lon="17.7148761">
        <ele>44.8386</ele>
        <time>2013-05-15T21:18:23Z</time>
      </trkpt>
      <trkpt lat="59.9543218" lon="17.7148738">
        <ele>44.8386</ele>
        <time>2013-05-15T21:18:24Z</time>
      </trkpt>
      <trkpt lat="59.9543331" lon="17.7148711">
        <ele>44.358</ele>
        <time>2013-05-15T21:18:25Z</time>
      </trkpt>
      <trkpt lat="59.9543423" lon="17.7148629">
        <ele>42.916</ele>
        <time>2013-05-15T21:18:26Z</time>
      </trkpt>
      <trkpt lat="59.9543524" lon="17.7148553">
        <ele>42.4354</ele>
        <time>2013-05-15T21:18:27Z</time>
      </trkpt>
      <trkpt lat="59.9543663" lon="17.7148469">
        <ele>42.4354</ele>
        <time>2013-05-15T21:18:28Z</time>
      </trkpt>
      <trkpt lat="59.9543777" lon="17.7148403">
        <ele>41.9547</ele>
        <time>2013-05-15T21:18:29Z</time>
      </trkpt>
      <trkpt lat="59.9543872" lon="17.7148276">
        <ele>41.9547</ele>
        <time>2013-05-15T21:18:30Z</time>
      </trkpt>
      <trkpt lat="59.9543962" lon="17.7148219">
        <ele>41.474</ele>
        <time>2013-05-15T21:18:31Z</time>
      </trkpt>
      <trkpt lat="59.9544073" lon="17.7148191">
        <ele>40.5128</ele>
        <time>2013-05-15T21:18:32Z</time>
      </trkpt>
      <trkpt lat="59.9544222" lon="17.7148188">
        <ele>40.9934</ele>
        <time>2013-05-15T21:18:33Z</time>
      </trkpt>
      <trkpt lat="59.9544381" lon="17.7148227">
        <ele>40.9934</ele>
        <time>2013-05-15T21:18:34Z</time>
      </trkpt>
      <trkpt lat="59.9544518" lon="17.7148253">
        <ele>40.5128</ele>
        <time>2013-05-15T21:18:35Z</time>
      </trkpt>
      <trkpt lat="59.9544656" lon="17.7148284">
        <ele>40.0321</ele>
        <time>2013-05-15T21:18:36Z</time>
      </trkpt>
      <trkpt lat="59.9544845" lon="17.7148307">
        <ele>40.0321</ele>
        <time>2013-05-15T21:18:37Z</time>
      </trkpt>
      <trkpt lat="59.9545037" lon="17.7148395">
        <ele>39.5513</ele>
        <time>2013-05-15T21:18:38Z</time>
      </trkpt>
      <trkpt lat="59.9545171" lon="17.7148494">
        <ele>39.0707</ele>
        <time>2013-05-15T21:18:39Z</time>
      </trkpt>
      <trkpt lat="59.9545321" lon="17.7148593">
        <ele>38.5901</ele>
        <time>2013-05-15T21:18:40Z</time>
      </trkpt>
      <trkpt lat="59.9545471" lon="17.7148626">
        <ele>38.5901</ele>
        <time>2013-05-15T21:18:41Z</time>
      </trkpt>
      <trkpt lat="59.9545636" lon="17.714865">
        <ele>38.5901</ele>
        <time>2013-05-15T21:18:42Z</time>
      </trkpt>
      <trkpt lat="59.9545794" lon="17.71487">
        <ele>39.0707</ele>
        <time>2013-05-15T21:18:43Z</time>
      </trkpt>
      <trkpt lat="59.9545931" lon="17.714865">
        <ele>38.5901</ele>
        <time>2013-05-15T21:18:44Z</time>
      </trkpt>
      <trkpt lat="59.9546082" lon="17.7148523">
        <ele>39.0707</ele>
        <time>2013-05-15T21:18:45Z</time>
      </trkpt>
      <trkpt lat="59.9546192" lon="17.7148456">
        <ele>39.0707</ele>
        <time>2013-05-15T21:18:46Z</time>
      </trkpt>
      <trkpt lat="59.954629" lon="17.7148388">
        <ele>38.1094</ele>
        <time>2013-05-15T21:18:47Z</time>
      </trkpt>
      <trkpt lat="59.954641" lon="17.7148322">
        <ele>37.6287</ele>
        <time>2013-05-15T21:18:48Z</time>
      </trkpt>
      <trkpt lat="59.9546526" lon="17.7148271">
        <ele>37.1481</ele>
        <time>2013-05-15T21:18:49Z</time>
      </trkpt>
      <trkpt lat="59.9546637" lon="17.7148193">
        <ele>36.6675</ele>
        <time>2013-05-15T21:18:50Z</time>
      </trkpt>
      <trkpt lat="59.954674" lon="17.714813">
        <ele>36.6675</ele>
        <time>2013-05-15T21:18:51Z</time>
      </trkpt>
      <trkpt lat="59.9546787" lon="17.7148053">
        <ele>35.7061</ele>
        <time>2013-05-15T21:18:52Z</time>
      </trkpt>
      <trkpt lat="59.9546875" lon="17.7147934">
        <ele>36.1868</ele>
        <time>2013-05-15T21:18:53Z</time>
      </trkpt>
      <trkpt lat="59.9546985" lon="17.7147927">
        <ele>35.7061</ele>
        <time>2013-05-15T21:18:54Z</time>
      </trkpt>
      <trkpt lat="59.9547114" lon="17.7147932">
        <ele>35.2255</ele>
        <time>2013-05-15T21:18:55Z</time>
      </trkpt>
      <trkpt lat="59.9547217" lon="17.7147945">
        <ele>35.2255</ele>
        <time>2013-05-15T21:18:56Z</time>
      </trkpt>
      <trkpt lat="59.9547283" lon="17.7147932">
        <ele>34.7449</ele>
        <time>2013-05-15T21:18:57Z</time>
      </trkpt>
      <trkpt lat="59.9547398" lon="17.7147892">
        <ele>35.2255</ele>
        <time>2013-05-15T21:18:58Z</time>
      </trkpt>
      <trkpt lat="59.9547517" lon="17.7147846">
        <ele>35.2255</ele>
        <time>2013-05-15T21:18:59Z</time>
      </trkpt>
      <trkpt lat="59.9547652" lon="17.7147816">
        <ele>35.2255</ele>
        <time>2013-05-15T21:19:00Z</time>
      </trkpt>
      <trkpt lat="59.9547757" lon="17.7147773">
        <ele>34.7449</ele>
        <time>2013-05-15T21:19:01Z</time>
      </trkpt>
      <trkpt lat="59.9547884" lon="17.714772">
        <ele>34.2642</ele>
        <time>2013-05-15T21:19:02Z</time>
      </trkpt>
      <trkpt lat="59.9547994" lon="17.7147654">
        <ele>33.3029</ele>
        <time>2013-05-15T21:19:03Z</time>
      </trkpt>
      <trkpt lat="59.9548108" lon="17.7147546">
        <ele>33.3029</ele>
        <time>2013-05-15T21:19:04Z</time>
      </trkpt>
      <trkpt lat="59.95482" lon="17.714739">
        <ele>32.8223</ele>
        <time>2013-05-15T21:19:05Z</time>
      </trkpt>
      <trkpt lat="59.954832" lon="17.7147255">
        <ele>33.3029</ele>
        <time>2013-05-15T21:19:06Z</time>
      </trkpt>
      <trkpt lat="59.9548434" lon="17.7147131">
        <ele>33.3029</ele>
        <time>2013-05-15T21:19:07Z</time>
      </trkpt>
      <trkpt lat="59.9548568" lon="17.7146992">
        <ele>33.7834</ele>
        <time>2013-05-15T21:19:08Z</time>
      </trkpt>
      <trkpt lat="59.9548694" lon="17.7146815">
        <ele>34.2642</ele>
        <time>2013-05-15T21:19:09Z</time>
      </trkpt>
      <trkpt lat="59.9548826" lon="17.7146666">
        <ele>34.2642</ele>
        <time>2013-05-15T21:19:10Z</time>
      </trkpt>
      <trkpt lat="59.9548941" lon="17.7146518">
        <ele>34.7449</ele>
        <time>2013-05-15T21:19:11Z</time>
      </trkpt>
      <trkpt lat="59.9549077" lon="17.7146407">
        <ele>35.2255</ele>
        <time>2013-05-15T21:19:12Z</time>
      </trkpt>
      <trkpt lat="59.9549201" lon="17.7146265">
        <ele>35.7061</ele>
        <time>2013-05-15T21:19:13Z</time>
      </trkpt>
      <trkpt lat="59.9549305" lon="17.7146078">
        <ele>36.1868</ele>
        <time>2013-05-15T21:19:14Z</time>
      </trkpt>
      <trkpt lat="59.9549404" lon="17.7145849">
        <ele>36.1868</ele>
        <time>2013-05-15T21:19:15Z</time>
      </trkpt>
      <trkpt lat="59.9549512" lon="17.714563">
        <ele>36.1868</ele>
        <time>2013-05-15T21:19:16Z</time>
      </trkpt>
      <trkpt lat="59.954966" lon="17.7145525">
        <ele>35.7061</ele>
        <time>2013-05-15T21:19:17Z</time>
      </trkpt>
      <trkpt lat="59.9549822" lon="17.7145307">
        <ele>37.6287</ele>
        <time>2013-05-15T21:19:18Z</time>
      </trkpt>
      <trkpt lat="59.9549919" lon="17.7145084">
        <ele>38.5901</ele>
        <time>2013-05-15T21:19:19Z</time>
      </trkpt>
      <trkpt lat="59.9550035" lon="17.7144924">
        <ele>39.0707</ele>
        <time>2013-05-15T21:19:20Z</time>
      </trkpt>
      <trkpt lat="59.9550176" lon="17.7144821">
        <ele>38.5901</ele>
        <time>2013-05-15T21:19:21Z</time>
      </trkpt>
      <trkpt lat="59.9550313" lon="17.7144701">
        <ele>39.0707</ele>
        <time>2013-05-15T21:19:22Z</time>
      </trkpt>
      <trkpt lat="59.9550447" lon="17.7144602">
        <ele>38.1094</ele>
        <time>2013-05-15T21:19:23Z</time>
      </trkpt>
      <trkpt lat="59.955064" lon="17.714464">
        <ele>37.6287</ele>
        <time>2013-05-15T21:19:24Z</time>
      </trkpt>
      <trkpt lat="59.9550802" lon="17.714463">
        <ele>37.6287</ele>
        <time>2013-05-15T21:19:25Z</time>
      </trkpt>
      <trkpt lat="59.95509" lon="17.7144545">
        <ele>37.1481</ele>
        <time>2013-05-15T21:19:26Z</time>
      </trkpt>
      <trkpt lat="59.9550957" lon="17.7144326">
        <ele>38.1094</ele>
        <time>2013-05-15T21:19:27Z</time>
      </trkpt>
      <trkpt lat="59.9550976" lon="17.7144121">
        <ele>37.6287</ele>
        <time>2013-05-15T21:19:28Z</time>
      </trkpt>
      <trkpt lat="59.9551048" lon="17.7144104">
        <ele>37.6287</ele>
        <time>2013-05-15T21:19:29Z</time>
      </trkpt>
      <trkpt lat="59.9551123" lon="17.7144116">
        <ele>37.6287</ele>
        <time>2013-05-15T21:19:30Z</time>
      </trkpt>
      <trkpt lat="59.9551147" lon="17.7144115">
        <ele>37.1481</ele>
        <time>2013-05-15T21:19:31Z</time>
      </trkpt>
      <trkpt lat="59.9551145" lon="17.7144038">
        <ele>37.1481</ele>
        <time>2013-05-15T21:19:32Z</time>
      </trkpt>
    </trkseg>
  </trk>
</gpx>